sensor_id;sensor_type;location;lat;lon;timestamp;P1;durP1;ratioP1;P2;durP2;ratioP2
74876;SDS011;64660;44.786;37.680;2022-11-15T00:01:55;10.85;;;2.20;;
74876;SDS011;64660;44.786;37.680;2022-11-15T00:04:40;11.97;;;2.77;;
74876;SDS011;64660;44.786;37.680;2022-11-15T00:07:29;10.95;;;2.47;;
74876;SDS011;64660;44.786;37.680;2022-11-15T00:10:16;8.20;;;2.30;;
74876;SDS011;64660;44.786;37.680;2022-11-15T00:13:04;14.60;;;2.17;;
74876;SDS011;64660;44.786;37.680;2022-11-15T00:16:00;12.52;;;3.08;;
74876;SDS011;64660;44.786;37.680;2022-11-15T00:18:56;16.10;;;2.37;;
74876;SDS011;64660;44.786;37.680;2022-11-15T00:21:44;14.85;;;3.75;;
74876;SDS011;64660;44.786;37.680;2022-11-15T00:24:29;7.25;;;1.77;;
74876;SDS011;64660;44.786;37.680;2022-11-15T00:27:24;10.23;;;1.73;;
74876;SDS011;64660;44.786;37.680;2022-11-15T00:30:09;9.25;;;2.08;;
74876;SDS011;64660;44.786;37.680;2022-11-15T00:32:56;11.43;;;2.90;;
74876;SDS011;64660;44.786;37.680;2022-11-15T00:35:43;12.48;;;2.67;;
74876;SDS011;64660;44.786;37.680;2022-11-15T00:38:39;9.70;;;2.65;;
74876;SDS011;64660;44.786;37.680;2022-11-15T00:41:26;10.73;;;2.20;;
74876;SDS011;64660;44.786;37.680;2022-11-15T00:44:14;9.70;;;1.27;;
74876;SDS011;64660;44.786;37.680;2022-11-15T00:46:59;8.27;;;1.97;;
74876;SDS011;64660;44.786;37.680;2022-11-15T00:49:46;12.35;;;3.03;;
74876;SDS011;64660;44.786;37.680;2022-11-15T00:52:30;11.32;;;2.75;;
74876;SDS011;64660;44.786;37.680;2022-11-15T00:55:26;9.13;;;2.15;;
74876;SDS011;64660;44.786;37.680;2022-11-15T00:58:20;16.58;;;3.40;;
74876;SDS011;64660;44.786;37.680;2022-11-15T01:01:17;13.80;;;2.70;;
74876;SDS011;64660;44.786;37.680;2022-11-15T01:04:07;9.38;;;2.08;;
74876;SDS011;64660;44.786;37.680;2022-11-15T01:06:54;12.05;;;2.60;;
74876;SDS011;64660;44.786;37.680;2022-11-15T01:09:39;10.30;;;2.53;;
74876;SDS011;64660;44.786;37.680;2022-11-15T01:12:26;10.65;;;2.42;;
74876;SDS011;64660;44.786;37.680;2022-11-15T01:15:14;9.93;;;3.03;;
74876;SDS011;64660;44.786;37.680;2022-11-15T01:17:59;9.15;;;2.10;;
74876;SDS011;64660;44.786;37.680;2022-11-15T01:20:47;12.18;;;2.38;;
74876;SDS011;64660;44.786;37.680;2022-11-15T01:23:50;7.43;;;1.70;;
74876;SDS011;64660;44.786;37.680;2022-11-15T01:26:45;9.02;;;2.08;;
74876;SDS011;64660;44.786;37.680;2022-11-15T01:29:30;11.60;;;2.50;;
74876;SDS011;64660;44.786;37.680;2022-11-15T01:32:26;7.35;;;2.55;;
74876;SDS011;64660;44.786;37.680;2022-11-15T01:35:13;13.35;;;3.10;;
74876;SDS011;64660;44.786;37.680;2022-11-15T01:37:58;11.30;;;3.05;;
74876;SDS011;64660;44.786;37.680;2022-11-15T01:40:45;18.77;;;3.72;;
74876;SDS011;64660;44.786;37.680;2022-11-15T01:43:31;16.33;;;2.93;;
74876;SDS011;64660;44.786;37.680;2022-11-15T01:46:37;8.07;;;2.55;;
74876;SDS011;64660;44.786;37.680;2022-11-15T01:49:24;15.80;;;3.55;;
74876;SDS011;64660;44.786;37.680;2022-11-15T01:52:17;13.05;;;3.72;;
74876;SDS011;64660;44.786;37.680;2022-11-15T01:55:21;17.83;;;3.75;;
74876;SDS011;64660;44.786;37.680;2022-11-15T01:58:09;10.17;;;3.50;;
74876;SDS011;64660;44.786;37.680;2022-11-15T02:00:56;12.05;;;3.15;;
74876;SDS011;64660;44.786;37.680;2022-11-15T02:03:56;8.80;;;3.30;;
74876;SDS011;64660;44.786;37.680;2022-11-15T02:06:55;8.35;;;2.90;;
74876;SDS011;64660;44.786;37.680;2022-11-15T02:09:40;10.00;;;2.08;;
74876;SDS011;64660;44.786;37.680;2022-11-15T02:12:36;7.83;;;1.37;;
74876;SDS011;64660;44.786;37.680;2022-11-15T02:15:25;7.45;;;1.88;;
74876;SDS011;64660;44.786;37.680;2022-11-15T02:18:38;7.60;;;2.08;;
74876;SDS011;64660;44.786;37.680;2022-11-15T02:21:51;6.95;;;1.88;;
74876;SDS011;64660;44.786;37.680;2022-11-15T02:25:05;10.38;;;2.33;;
74876;SDS011;64660;44.786;37.680;2022-11-15T02:28:41;9.53;;;2.50;;
74876;SDS011;64660;44.786;37.680;2022-11-15T02:31:44;8.35;;;1.92;;
74876;SDS011;64660;44.786;37.680;2022-11-15T02:41:25;9.63;;;3.03;;
74876;SDS011;64660;44.786;37.680;2022-11-15T02:44:39;5.50;;;1.73;;
74876;SDS011;64660;44.786;37.680;2022-11-15T02:47:29;12.10;;;2.95;;
74876;SDS011;64660;44.786;37.680;2022-11-15T02:50:44;9.02;;;2.40;;
74876;SDS011;64660;44.786;37.680;2022-11-15T02:53:39;16.13;;;3.53;;
74876;SDS011;64660;44.786;37.680;2022-11-15T02:56:25;12.32;;;2.20;;
74876;SDS011;64660;44.786;37.680;2022-11-15T02:59:23;10.63;;;3.77;;
74876;SDS011;64660;44.786;37.680;2022-11-15T03:05:56;7.10;;;1.80;;
74876;SDS011;64660;44.786;37.680;2022-11-15T03:12:15;19.38;;;2.75;;
74876;SDS011;64660;44.786;37.680;2022-11-15T03:15:29;17.03;;;3.00;;
74876;SDS011;64660;44.786;37.680;2022-11-15T03:18:41;11.88;;;2.80;;
74876;SDS011;64660;44.786;37.680;2022-11-15T03:21:34;16.63;;;3.78;;
74876;SDS011;64660;44.786;37.680;2022-11-15T03:24:44;13.60;;;5.00;;
74876;SDS011;64660;44.786;37.680;2022-11-15T03:27:46;20.65;;;3.38;;
74876;SDS011;64660;44.786;37.680;2022-11-15T03:30:46;15.00;;;4.17;;
74876;SDS011;64660;44.786;37.680;2022-11-15T03:33:46;12.35;;;2.78;;
74876;SDS011;64660;44.786;37.680;2022-11-15T03:36:37;21.45;;;4.53;;
74876;SDS011;64660;44.786;37.680;2022-11-15T03:39:26;18.17;;;3.45;;
74876;SDS011;64660;44.786;37.680;2022-11-15T03:42:18;15.27;;;3.65;;
74876;SDS011;64660;44.786;37.680;2022-11-15T03:45:36;15.63;;;4.13;;
74876;SDS011;64660;44.786;37.680;2022-11-15T03:48:59;7.53;;;2.83;;
74876;SDS011;64660;44.786;37.680;2022-11-15T03:51:56;11.15;;;3.40;;
74876;SDS011;64660;44.786;37.680;2022-11-15T03:54:56;6.85;;;1.75;;
74876;SDS011;64660;44.786;37.680;2022-11-15T03:57:44;22.42;;;3.63;;
74876;SDS011;64660;44.786;37.680;2022-11-15T04:00:30;8.73;;;3.03;;
74876;SDS011;64660;44.786;37.680;2022-11-15T04:03:26;12.77;;;2.28;;
74876;SDS011;64660;44.786;37.680;2022-11-15T04:06:14;12.73;;;3.85;;
74876;SDS011;64660;44.786;37.680;2022-11-15T04:08:59;16.45;;;4.53;;
74876;SDS011;64660;44.786;37.680;2022-11-15T04:11:55;10.70;;;2.78;;
74876;SDS011;64660;44.786;37.680;2022-11-15T04:14:40;9.37;;;2.30;;
74876;SDS011;64660;44.786;37.680;2022-11-15T04:20:36;11.57;;;3.20;;
74876;SDS011;64660;44.786;37.680;2022-11-15T04:23:41;11.52;;;3.13;;
74876;SDS011;64660;44.786;37.680;2022-11-15T04:26:48;11.00;;;3.05;;
74876;SDS011;64660;44.786;37.680;2022-11-15T04:29:35;11.00;;;2.63;;
74876;SDS011;64660;44.786;37.680;2022-11-15T04:32:27;32.65;;;3.20;;
74876;SDS011;64660;44.786;37.680;2022-11-15T04:35:13;6.50;;;2.20;;
74876;SDS011;64660;44.786;37.680;2022-11-15T04:37:59;12.23;;;1.83;;
74876;SDS011;64660;44.786;37.680;2022-11-15T04:40:56;9.35;;;2.05;;
74876;SDS011;64660;44.786;37.680;2022-11-15T04:43:44;12.27;;;2.90;;
74876;SDS011;64660;44.786;37.680;2022-11-15T04:46:29;8.18;;;2.10;;
74876;SDS011;64660;44.786;37.680;2022-11-15T04:49:24;10.50;;;1.92;;
74876;SDS011;64660;44.786;37.680;2022-11-15T04:52:09;8.52;;;1.67;;
74876;SDS011;64660;44.786;37.680;2022-11-15T04:54:57;18.85;;;4.40;;
74876;SDS011;64660;44.786;37.680;2022-11-15T04:57:43;11.40;;;3.40;;
74876;SDS011;64660;44.786;37.680;2022-11-15T05:00:29;6.72;;;1.55;;
74876;SDS011;64660;44.786;37.680;2022-11-15T05:03:14;16.58;;;4.18;;
74876;SDS011;64660;44.786;37.680;2022-11-15T05:06:18;13.52;;;4.43;;
74876;SDS011;64660;44.786;37.680;2022-11-15T05:09:05;9.95;;;1.70;;
74876;SDS011;64660;44.786;37.680;2022-11-15T05:12:04;10.70;;;2.90;;
74876;SDS011;64660;44.786;37.680;2022-11-15T05:14:49;7.90;;;1.65;;
74876;SDS011;64660;44.786;37.680;2022-11-15T05:17:38;8.25;;;1.60;;
74876;SDS011;64660;44.786;37.680;2022-11-15T05:20:23;16.80;;;3.55;;
74876;SDS011;64660;44.786;37.680;2022-11-15T05:23:09;47.10;;;5.13;;
74876;SDS011;64660;44.786;37.680;2022-11-15T05:26:05;17.97;;;2.27;;
74876;SDS011;64660;44.786;37.680;2022-11-15T05:28:55;5.80;;;1.30;;
74876;SDS011;64660;44.786;37.680;2022-11-15T05:31:43;8.68;;;1.83;;
74876;SDS011;64660;44.786;37.680;2022-11-15T05:34:28;12.50;;;7.40;;
74876;SDS011;64660;44.786;37.680;2022-11-15T05:37:15;8.10;;;1.90;;
74876;SDS011;64660;44.786;37.680;2022-11-15T05:40:00;7.37;;;0.87;;
74876;SDS011;64660;44.786;37.680;2022-11-15T05:42:57;7.78;;;1.40;;
74876;SDS011;64660;44.786;37.680;2022-11-15T05:45:57;7.22;;;2.25;;
74876;SDS011;64660;44.786;37.680;2022-11-15T05:48:46;10.27;;;2.88;;
74876;SDS011;64660;44.786;37.680;2022-11-15T05:51:45;7.43;;;1.90;;
74876;SDS011;64660;44.786;37.680;2022-11-15T05:54:34;4.60;;;0.65;;
74876;SDS011;64660;44.786;37.680;2022-11-15T05:57:30;10.20;;;1.08;;
74876;SDS011;64660;44.786;37.680;2022-11-15T06:00:28;8.23;;;1.33;;
74876;SDS011;64660;44.786;37.680;2022-11-15T06:03:14;6.15;;;0.70;;
74876;SDS011;64660;44.786;37.680;2022-11-15T06:06:00;4.80;;;0.88;;
74876;SDS011;64660;44.786;37.680;2022-11-15T06:08:56;10.23;;;0.80;;
74876;SDS011;64660;44.786;37.680;2022-11-15T06:11:40;11.70;;;1.38;;
74876;SDS011;64660;44.786;37.680;2022-11-15T06:14:36;6.80;;;0.77;;
74876;SDS011;64660;44.786;37.680;2022-11-15T06:17:35;6.50;;;0.95;;
74876;SDS011;64660;44.786;37.680;2022-11-15T06:20:20;4.65;;;0.50;;
74876;SDS011;64660;44.786;37.680;2022-11-15T06:23:23;7.18;;;1.02;;
74876;SDS011;64660;44.786;37.680;2022-11-15T06:26:08;4.90;;;0.60;;
74876;SDS011;64660;44.786;37.680;2022-11-15T06:28:54;6.07;;;0.60;;
74876;SDS011;64660;44.786;37.680;2022-11-15T06:31:39;4.45;;;0.63;;
74876;SDS011;64660;44.786;37.680;2022-11-15T06:34:36;5.47;;;0.80;;
74876;SDS011;64660;44.786;37.680;2022-11-15T07:34:12;14.80;;;4.63;;
74876;SDS011;64660;44.786;37.680;2022-11-15T07:39:55;11.15;;;1.15;;
74876;SDS011;64660;44.786;37.680;2022-11-15T07:42:42;15.13;;;5.22;;
74876;SDS011;64660;44.786;37.680;2022-11-15T07:45:42;5.55;;;1.13;;
74876;SDS011;64660;44.786;37.680;2022-11-15T07:48:38;7.93;;;2.45;;
74876;SDS011;64660;44.786;37.680;2022-11-15T07:51:25;8.75;;;0.88;;
74876;SDS011;64660;44.786;37.680;2022-11-15T20:56:47;20.98;;;5.65;;
74876;SDS011;64660;44.786;37.680;2022-11-15T20:59:15;15.80;;;6.82;;
74876;SDS011;64660;44.786;37.680;2022-11-15T21:01:44;29.73;;;6.57;;
74876;SDS011;64660;44.786;37.680;2022-11-15T21:04:16;16.45;;;6.10;;
74876;SDS011;64660;44.786;37.680;2022-11-15T21:06:45;18.30;;;5.60;;
74876;SDS011;64660;44.786;37.680;2022-11-15T21:09:14;21.88;;;5.63;;
74876;SDS011;64660;44.786;37.680;2022-11-15T21:12:01;25.60;;;6.32;;
74876;SDS011;64660;44.786;37.680;2022-11-15T21:14:42;18.20;;;6.83;;
74876;SDS011;64660;44.786;37.680;2022-11-15T21:17:11;13.05;;;5.70;;
74876;SDS011;64660;44.786;37.680;2022-11-15T21:19:38;25.70;;;6.43;;
74876;SDS011;64660;44.786;37.680;2022-11-15T21:22:16;32.33;;;7.03;;
74876;SDS011;64660;44.786;37.680;2022-11-15T21:24:44;24.63;;;5.50;;
74876;SDS011;64660;44.786;37.680;2022-11-15T21:27:12;19.57;;;6.30;;
74876;SDS011;64660;44.786;37.680;2022-11-15T21:29:41;21.60;;;5.88;;
74876;SDS011;64660;44.786;37.680;2022-11-15T21:32:20;15.32;;;5.70;;
74876;SDS011;64660;44.786;37.680;2022-11-15T21:34:47;15.98;;;5.20;;
74876;SDS011;64660;44.786;37.680;2022-11-15T21:37:28;21.45;;;4.45;;
74876;SDS011;64660;44.786;37.680;2022-11-15T21:40:15;23.43;;;5.80;;
74876;SDS011;64660;44.786;37.680;2022-11-15T21:42:43;20.92;;;5.72;;
74876;SDS011;64660;44.786;37.680;2022-11-15T21:45:12;20.48;;;5.55;;
74876;SDS011;64660;44.786;37.680;2022-11-15T21:47:40;21.20;;;5.78;;
74876;SDS011;64660;44.786;37.680;2022-11-15T21:50:11;15.10;;;5.53;;
74876;SDS011;64660;44.786;37.680;2022-11-15T21:52:37;18.53;;;4.10;;
74876;SDS011;64660;44.786;37.680;2022-11-15T21:55:14;34.80;;;7.22;;
74876;SDS011;64660;44.786;37.680;2022-11-15T21:57:41;24.83;;;6.45;;
74876;SDS011;64660;44.786;37.680;2022-11-15T22:00:08;23.00;;;7.35;;
74876;SDS011;64660;44.786;37.680;2022-11-15T22:03:05;25.42;;;7.32;;
74876;SDS011;64660;44.786;37.680;2022-11-15T22:05:33;28.47;;;7.83;;
74876;SDS011;64660;44.786;37.680;2022-11-15T22:08:02;21.00;;;8.15;;
74876;SDS011;64660;44.786;37.680;2022-11-15T22:10:28;18.13;;;6.05;;
74876;SDS011;64660;44.786;37.680;2022-11-15T22:12:55;21.63;;;6.22;;
74876;SDS011;64660;44.786;37.680;2022-11-15T22:15:22;17.75;;;5.53;;
74876;SDS011;64660;44.786;37.680;2022-11-15T22:17:51;18.33;;;6.17;;
74876;SDS011;64660;44.786;37.680;2022-11-15T22:20:28;19.75;;;5.90;;
74876;SDS011;64660;44.786;37.680;2022-11-15T22:23:04;17.40;;;5.63;;
74876;SDS011;64660;44.786;37.680;2022-11-15T22:25:33;19.85;;;5.97;;
74876;SDS011;64660;44.786;37.680;2022-11-15T22:28:01;21.00;;;8.07;;
74876;SDS011;64660;44.786;37.680;2022-11-15T22:30:28;28.43;;;7.23;;
74876;SDS011;64660;44.786;37.680;2022-11-15T22:33:06;23.38;;;7.15;;
74876;SDS011;64660;44.786;37.680;2022-11-15T22:35:34;30.33;;;8.77;;
74876;SDS011;64660;44.786;37.680;2022-11-15T22:38:03;27.02;;;8.68;;
74876;SDS011;64660;44.786;37.680;2022-11-15T22:40:32;27.30;;;6.72;;
74876;SDS011;64660;44.786;37.680;2022-11-15T22:43:03;29.63;;;7.73;;
74876;SDS011;64660;44.786;37.680;2022-11-15T22:45:32;30.75;;;9.10;;
74876;SDS011;64660;44.786;37.680;2022-11-15T22:48:02;16.80;;;7.50;;
74876;SDS011;64660;44.786;37.680;2022-11-15T22:50:33;41.08;;;12.07;;
74876;SDS011;64660;44.786;37.680;2022-11-15T22:53:02;40.53;;;13.60;;
74876;SDS011;64660;44.786;37.680;2022-11-15T22:55:38;29.03;;;12.13;;
74876;SDS011;64660;44.786;37.680;2022-11-15T22:58:08;21.60;;;5.57;;
74876;SDS011;64660;44.786;37.680;2022-11-15T23:00:51;34.53;;;10.95;;
74876;SDS011;64660;44.786;37.680;2022-11-15T23:03:22;28.60;;;10.90;;
74876;SDS011;64660;44.786;37.680;2022-11-15T23:06:03;31.75;;;8.13;;
74876;SDS011;64660;44.786;37.680;2022-11-15T23:08:34;30.67;;;10.37;;
74876;SDS011;64660;44.786;37.680;2022-11-15T23:11:05;35.47;;;11.10;;
74876;SDS011;64660;44.786;37.680;2022-11-15T23:13:56;26.40;;;9.68;;
74876;SDS011;64660;44.786;37.680;2022-11-15T23:16:34;39.25;;;9.73;;
74876;SDS011;64660;44.786;37.680;2022-11-15T23:19:06;25.00;;;9.73;;
74876;SDS011;64660;44.786;37.680;2022-11-15T23:21:40;31.10;;;10.20;;
74876;SDS011;64660;44.786;37.680;2022-11-15T23:24:52;24.27;;;9.63;;
74876;SDS011;64660;44.786;37.680;2022-11-15T23:27:22;24.25;;;8.95;;
74876;SDS011;64660;44.786;37.680;2022-11-15T23:29:48;19.60;;;8.82;;
74876;SDS011;64660;44.786;37.680;2022-11-15T23:32:35;27.45;;;8.43;;
74876;SDS011;64660;44.786;37.680;2022-11-15T23:35:23;36.17;;;10.40;;
74876;SDS011;64660;44.786;37.680;2022-11-15T23:37:52;32.20;;;8.68;;
74876;SDS011;64660;44.786;37.680;2022-11-15T23:40:18;41.42;;;12.65;;
74876;SDS011;64660;44.786;37.680;2022-11-15T23:42:45;29.95;;;9.93;;
74876;SDS011;64660;44.786;37.680;2022-11-15T23:45:14;37.83;;;10.90;;
74876;SDS011;64660;44.786;37.680;2022-11-15T23:47:42;24.77;;;10.73;;
74876;SDS011;64660;44.786;37.680;2022-11-15T23:50:11;24.25;;;8.57;;
74876;SDS011;64660;44.786;37.680;2022-11-15T23:52:42;24.27;;;11.20;;
74876;SDS011;64660;44.786;37.680;2022-11-15T23:55:11;26.67;;;11.02;;
74876;SDS011;64660;44.786;37.680;2022-11-15T23:57:38;26.95;;;9.57;;
